Time;durP1;ratioP1;P1;durP2;ratioP2;P2;SDS_P1;SDS_P2;PMS_P1;PMS_P2;Temp;Humidity;BMP_temperature;BMP_pressure;BME280_temperature;BME280_humidity;BME280_pressure;Samples;Min_cycle;Max_cycle;Signal;HPM_P1;HPM_P2
2021/01/02 00:00:17;;;;;;;;;;;;;;;21.43;40.38;101342.84;5120450;28;755;-45
2021/01/02 00:02:42;;;;;;;;;;;;;;;21.19;40.84;101346.41;5120728;28;1489;-44
2021/01/02 00:05:09;;;;;;;;;;;;;;;20.82;41.61;101350.59;5120092;27;1004;-45
2021/01/02 00:07:46;;;;;;;;;;;;;;;20.53;42.33;101367.09;5120319;28;811;-45
2021/01/02 00:10:14;;;;;;;;;;;;;;;20.31;42.72;101370.25;5131405;27;1981;-44
2021/01/02 00:13:12;;;;;;;;;;;;;;;19.92;43.69;101370.97;5140809;27;866;-44
2021/01/02 00:15:45;;;;;;;;;;;;;;;19.84;43.80;101377.91;5105977;27;1215;-44
2021/01/02 00:18:24;;;;;;;;;;;;;;;20.00;43.38;101364.88;5139820;27;825;-44
2021/01/02 00:20:50;;;;;;;;;;;;;;;19.79;44.04;101370.47;5132687;27;1028;-44
2021/01/02 00:23:38;;;;;;;;;;;;;;;20.50;42.59;101362.94;5120104;28;723;-44
2021/01/02 00:26:33;;;;;;;;;;;;;;;20.95;41.03;101371.22;5114442;28;1443;-46
2021/01/02 00:28:58;;;;;;;;;;;;;;;20.42;42.50;101371.84;5110620;27;1897;-45
2021/01/02 00:31:27;;;;;;;;;;;;;;;20.27;42.69;101386.56;5120483;28;787;-44
2021/01/02 00:34:13;;;;;;;;;;;;;;;19.94;43.61;101377.88;5119874;28;767;-44
2021/01/02 00:36:57;;;;;;;;;;;;;;;19.96;43.46;101380.34;5119175;27;1345;-44
2021/01/02 00:39:35;;;;;;;;;;;;;;;20.85;41.55;101374.91;5119968;28;786;-44
2021/01/02 00:42:01;;;;;;;;;;;;;;;20.68;41.87;101380.00;5118717;28;802;-44
2021/01/02 00:44:26;;;;;;;;;;;;;;;20.58;42.05;101385.56;5120324;28;728;-44
2021/01/02 00:46:52;;;;;;;;;;;;;;;20.19;42.91;101387.16;5118051;28;1129;-45
2021/01/02 00:49:17;;;;;;;;;;;;;;;19.88;43.48;101384.53;5118545;28;1894;-44
2021/01/02 00:51:48;;;;;;;;;;;;;;;19.67;44.07;101389.25;5118935;27;993;-43
2021/01/02 00:54:27;;;;;;;;;;;;;;;19.87;43.72;101382.88;5118869;27;1100;-45
2021/01/02 00:57:02;;;;;;;;;;;;;;;19.85;43.70;101387.00;5119520;28;815;-44
2021/01/02 00:59:47;;;;;;;;;;;;;;;20.06;43.33;101394.09;5118296;28;1156;-44
2021/01/02 01:02:34;;;;;;;;;;;;;;;20.89;41.32;101379.84;5118532;28;1266;-46
2021/01/02 01:05:03;;;;;;;;;;;;;;;20.45;42.14;101376.78;5119718;27;1016;-44
2021/01/02 01:07:30;;;;;;;;;;;;;;;20.43;42.28;101390.06;5119220;28;795;-43
2021/01/02 01:09:56;;;;;;;;;;;;;;;20.16;42.93;101390.47;5127960;27;1906;-45
2021/01/02 01:12:21;;;;;;;;;;;;;;;19.80;43.64;101385.91;5140078;27;805;-44
2021/01/02 01:14:47;;;;;;;;;;;;;;;20.42;42.46;101398.66;5138280;27;814;-44
2021/01/02 01:17:17;;;;;;;;;;;;;;;20.92;41.11;101390.34;5140047;27;789;-44
2021/01/02 01:19:42;;;;;;;;;;;;;;;20.54;41.95;101395.53;5139791;27;774;-45
2021/01/02 01:22:08;;;;;;;;;;;;;;;20.40;42.17;101407.22;5136799;27;965;-49
2021/01/02 01:24:48;;;;;;;;;;;;;;;20.06;42.88;101405.13;5138168;27;854;-48
2021/01/02 01:27:26;;;;;;;;;;;;;;;19.94;43.60;101411.00;5138520;27;783;-46
2021/01/02 01:29:56;;;;;;;;;;;;;;;20.80;41.41;101416.41;5139065;27;1905;-43
2021/01/02 01:32:22;;;;;;;;;;;;;;;20.79;41.25;101412.00;5139912;27;766;-44
2021/01/02 01:34:48;;;;;;;;;;;;;;;20.44;42.35;101412.97;5139828;27;739;-43
2021/01/02 01:37:17;;;;;;;;;;;;;;;20.26;42.64;101423.56;5120023;27;972;-43
2021/01/02 01:39:48;;;;;;;;;;;;;;;19.95;43.42;101411.81;5118966;28;819;-45
2021/01/02 01:42:13;;;;;;;;;;;;;;;19.60;44.07;101413.53;5118710;28;862;-44
2021/01/02 01:44:39;;;;;;;;;;;;;;;19.75;43.58;101424.53;5117063;28;1108;-46
2021/01/02 01:47:15;;;;;;;;;;;;;;;19.77;43.65;101421.50;5118768;28;758;-44
2021/01/02 01:49:40;;;;;;;;;;;;;;;19.81;43.66;101428.97;5118475;28;1901;-44
2021/01/02 01:52:12;;;;;;;;;;;;;;;20.65;41.71;101433.03;5117779;27;941;-44
2021/01/02 01:54:56;;;;;;;;;;;;;;;20.73;41.28;101440.75;5118697;28;810;-44
2021/01/02 01:57:28;;;;;;;;;;;;;;;20.46;42.08;101444.75;5118054;28;735;-45
2021/01/02 01:59:56;;;;;;;;;;;;;;;20.11;42.85;101435.50;5118467;28;831;-44
2021/01/02 02:02:41;;;;;;;;;;;;;;;19.80;43.39;101440.28;5117249;27;781;-45
2021/01/02 02:05:07;;;;;;;;;;;;;;;20.22;42.52;101432.72;5118258;27;964;-45
2021/01/02 02:07:51;;;;;;;;;;;;;;;20.94;40.90;101446.16;5138270;27;821;-44
2021/01/02 02:10:28;;;;;;;;;;;;;;;20.43;41.94;101439.78;5138584;27;1910;-44
2021/01/02 02:12:54;;;;;;;;;;;;;;;20.31;42.39;101442.91;5138431;27;755;-44
2021/01/02 02:15:20;;;;;;;;;;;;;;;20.17;42.60;101442.69;5138804;27;866;-46
2021/01/02 02:17:46;;;;;;;;;;;;;;;19.78;43.68;101435.03;5138566;27;861;-44
2021/01/02 02:20:15;;;;;;;;;;;;;;;20.55;41.81;101431.16;5135724;27;992;-45
2021/01/02 02:22:41;;;;;;;;;;;;;;;20.86;40.86;101442.09;5131259;27;775;-47
2021/01/02 02:25:08;;;;;;;;;;;;;;;20.35;42.19;101443.13;5138493;27;766;-44
2021/01/02 02:27:37;;;;;;;;;;;;;;;20.16;42.50;101434.66;5138400;27;793;-45
2021/01/02 02:30:04;;;;;;;;;;;;;;;19.80;43.39;101438.34;5137317;27;1966;-43
2021/01/02 02:32:30;;;;;;;;;;;;;;;19.74;43.60;101447.72;5137243;27;838;-44
2021/01/02 02:34:56;;;;;;;;;;;;;;;20.62;41.58;101442.75;5138213;27;814;-43
2021/01/02 02:37:21;;;;;;;;;;;;;;;20.73;41.35;101435.22;5135740;27;1005;-43
2021/01/02 02:39:47;;;;;;;;;;;;;;;20.58;41.63;101421.47;5138078;27;771;-44
2021/01/02 02:42:12;;;;;;;;;;;;;;;20.23;42.38;101431.59;5136832;27;1053;-43
2021/01/02 02:44:38;;;;;;;;;;;;;;;19.89;42.95;101429.50;5137136;27;1231;-44
2021/01/02 02:47:03;;;;;;;;;;;;;;;19.99;42.96;101433.06;5137198;27;747;-44
2021/01/02 02:49:32;;;;;;;;;;;;;;;20.77;41.29;101422.50;5136713;27;1965;-43
2021/01/02 02:51:58;;;;;;;;;;;;;;;20.72;41.18;101430.84;5120578;27;1008;-44
2021/01/02 02:54:23;;;;;;;;;;;;;;;20.49;41.66;101430.34;5117369;28;791;-45
2021/01/02 02:56:49;;;;;;;;;;;;;;;20.25;42.26;101432.16;5117789;28;737;-46
2021/01/02 02:59:14;;;;;;;;;;;;;;;19.89;43.07;101433.06;5117546;28;795;-44
2021/01/02 03:01:40;;;;;;;;;;;;;;;19.63;43.55;101427.59;5117106;28;858;-44
2021/01/02 03:04:05;;;;;;;;;;;;;;;20.28;42.35;101421.34;5117206;28;850;-44
2021/01/02 03:06:31;;;;;;;;;;;;;;;20.94;40.84;101429.56;5116936;27;957;-44
2021/01/02 03:08:57;;;;;;;;;;;;;;;20.71;41.14;101426.41;5116224;28;1897;-44
2021/01/02 03:11:25;;;;;;;;;;;;;;;20.40;41.98;101429.31;5137844;27;810;-47
2021/01/02 03:13:54;;;;;;;;;;;;;;;20.18;42.47;101422.22;5136687;27;770;-44
2021/01/02 03:16:19;;;;;;;;;;;;;;;19.76;43.13;101428.13;5137649;27;826;-43
2021/01/02 03:18:45;;;;;;;;;;;;;;;20.27;42.35;101429.91;5137007;27;896;-44
2021/01/02 03:21:10;;;;;;;;;;;;;;;21.02;40.40;101421.47;5136257;27;988;-44
2021/01/02 03:23:45;;;;;;;;;;;;;;;20.58;41.53;101432.53;5137567;27;738;-46
2021/01/02 03:26:11;;;;;;;;;;;;;;;20.51;41.39;101435.63;5137474;27;834;-43
2021/01/02 03:28:36;;;;;;;;;;;;;;;20.09;42.55;101426.69;5137616;27;1917;-44
2021/01/02 03:31:02;;;;;;;;;;;;;;;19.64;43.42;101422.91;5137600;27;802;-44
2021/01/02 03:33:28;;;;;;;;;;;;;;;20.26;42.30;101425.50;5137399;27;882;-44
2021/01/02 03:36:00;;;;;;;;;;;;;;;21.02;40.33;101423.44;5129087;27;996;-44
2021/01/02 03:38:26;;;;;;;;;;;;;;;20.47;41.46;101427.06;5117156;28;843;-43
2021/01/02 03:40:51;;;;;;;;;;;;;;;20.34;42.01;101430.44;5116621;28;806;-44
2021/01/02 03:43:17;;;;;;;;;;;;;;;19.96;42.68;101433.63;5116967;28;772;-44
2021/01/02 03:45:42;;;;;;;;;;;;;;;19.54;43.84;101440.28;5116557;28;1123;-44
2021/01/02 03:48:08;;;;;;;;;;;;;;;20.46;41.79;101450.28;5117224;28;869;-44
2021/01/02 03:50:33;;;;;;;;;;;;;;;20.91;40.60;101446.75;5116038;27;1909;-44
2021/01/02 03:52:58;;;;;;;;;;;;;;;20.52;41.58;101454.69;5117031;28;755;-44
2021/01/02 03:55:24;;;;;;;;;;;;;;;20.37;41.86;101452.00;5116830;28;838;-44
2021/01/02 03:57:49;;;;;;;;;;;;;;;19.92;42.96;101459.31;5116572;28;826;-44
2021/01/02 04:00:15;;;;;;;;;;;;;;;19.72;43.33;101454.63;5116530;28;818;-44
2021/01/02 04:02:40;;;;;;;;;;;;;;;20.36;41.91;101450.31;5116863;28;739;-44
2021/01/02 04:05:06;;;;;;;;;;;;;;;20.97;40.62;101451.09;5116055;27;957;-44
2021/01/02 04:07:31;;;;;;;;;;;;;;;20.39;41.52;101460.81;5116846;28;834;-43
2021/01/02 04:09:57;;;;;;;;;;;;;;;20.41;41.64;101458.59;5125400;28;1976;-44
2021/01/02 04:12:23;;;;;;;;;;;;;;;20.20;42.20;101465.28;5136864;27;739;-44
2021/01/02 04:14:48;;;;;;;;;;;;;;;19.80;42.95;101460.44;5130447;27;878;-45
2021/01/02 04:17:13;;;;;;;;;;;;;;;20.56;41.50;101465.16;5116759;28;746;-45
2021/01/02 04:19:39;;;;;;;;;;;;;;;21.13;40.07;101466.47;5116233;28;771;-44
2021/01/02 04:22:04;;;;;;;;;;;;;;;20.63;41.19;101471.19;5115995;27;1011;-44
2021/01/02 04:24:30;;;;;;;;;;;;;;;20.53;41.31;101474.81;5116903;28;743;-44
2021/01/02 04:26:58;;;;;;;;;;;;;;;19.95;42.87;101467.00;5116498;28;770;-43
2021/01/02 04:29:24;;;;;;;;;;;;;;;19.75;43.25;101482.47;5116466;28;1906;-43
2021/01/02 04:31:50;;;;;;;;;;;;;;;19.97;42.86;101481.38;5119107;28;835;-43
2021/01/02 04:34:16;;;;;;;;;;;;;;;20.88;40.66;101491.53;5120174;28;759;-44
2021/01/02 04:36:41;;;;;;;;;;;;;;;20.65;41.31;101491.06;5120470;27;1008;-44
2021/01/02 04:39:07;;;;;;;;;;;;;;;20.40;41.74;101484.56;5120207;28;814;-43
2021/01/02 04:41:32;;;;;;;;;;;;;;;20.26;42.01;101489.00;5119712;28;807;-43
2021/01/02 04:43:58;;;;;;;;;;;;;;;19.74;43.05;101489.13;5120006;28;806;-43
2021/01/02 04:46:23;;;;;;;;;;;;;;;20.26;42.12;101489.00;5118690;28;1224;-43
2021/01/02 04:48:49;;;;;;;;;;;;;;;20.91;40.56;101489.03;5117964;28;1994;-43
2021/01/02 04:51:14;;;;;;;;;;;;;;;20.47;41.31;101479.56;5129629;27;1004;-45
2021/01/02 04:53:40;;;;;;;;;;;;;;;20.40;41.56;101475.44;5140454;27;814;-45
2021/01/02 04:56:06;;;;;;;;;;;;;;;20.27;41.84;101480.47;5140036;27;750;-45
2021/01/02 04:58:31;;;;;;;;;;;;;;;19.81;43.07;101478.66;5139522;27;966;-49
2021/01/02 05:00:57;;;;;;;;;;;;;;;20.60;41.22;101480.06;5140360;27;747;-43
2021/01/02 05:03:23;;;;;;;;;;;;;;;20.73;40.79;101487.75;5139910;27;829;-42
2021/01/02 05:05:49;;;;;;;;;;;;;;;20.42;41.31;101493.38;5132571;27;1019;-44
2021/01/02 05:08:14;;;;;;;;;;;;;;;20.14;42.01;101490.16;5120102;27;783;-44
2021/01/02 05:10:39;;;;;;;;;;;;;;;19.78;42.77;101494.91;5133776;27;1978;-44
2021/01/02 05:13:08;;;;;;;;;;;;;;;19.96;42.51;101499.88;5140195;27;846;-44
2021/01/02 05:15:33;;;;;;;;;;;;;;;20.84;40.46;101505.91;5140126;27;859;-45
2021/01/02 05:17:59;;;;;;;;;;;;;;;20.62;41.03;101506.31;5139630;27;751;-44
2021/01/02 05:20:24;;;;;;;;;;;;;;;20.33;41.71;101511.66;5134191;27;981;-44
2021/01/02 05:22:50;;;;;;;;;;;;;;;20.18;41.86;101510.56;5119408;28;799;-45
2021/01/02 05:25:19;;;;;;;;;;;;;;;19.92;42.41;101511.75;5118819;28;778;-44
2021/01/02 05:27:48;;;;;;;;;;;;;;;20.24;41.89;101522.44;5119295;28;751;-44
2021/01/02 05:30:19;;;;;;;;;;;;;;;20.96;39.89;101527.72;5119118;28;1975;-44
2021/01/02 05:33:03;;;;;;;;;;;;;;;20.49;40.91;101538.09;5118619;28;739;-44
2021/01/02 05:35:33;;;;;;;;;;;;;;;20.20;41.58;101543.44;5122623;27;949;-44
2021/01/02 05:38:11;;;;;;;;;;;;;;;19.72;42.53;101546.50;5139694;27;759;-46
2021/01/02 05:40:37;;;;;;;;;;;;;;;20.14;41.94;101542.63;5139346;27;735;-44
2021/01/02 05:43:02;;;;;;;;;;;;;;;20.97;40.21;101548.72;5138575;27;834;-44
2021/01/02 05:45:28;;;;;;;;;;;;;;;20.43;41.15;101550.28;5139321;27;1030;-45
2021/01/02 05:47:55;;;;;;;;;;;;;;;20.28;41.41;101553.09;5139051;27;814;-44
2021/01/02 05:50:21;;;;;;;;;;;;;;;20.12;41.89;101552.31;5135343;27;1913;-44
2021/01/02 05:52:49;;;;;;;;;;;;;;;19.85;42.25;101552.59;5117537;28;869;-44
2021/01/02 05:55:27;;;;;;;;;;;;;;;20.46;41.14;101558.00;5118382;28;818;-46
2021/01/02 05:57:52;;;;;;;;;;;;;;;21.04;39.87;101553.91;5119011;28;790;-44
2021/01/02 06:00:18;;;;;;;;;;;;;;;20.49;40.93;101568.50;5118433;28;814;-44
2021/01/02 06:02:44;;;;;;;;;;;;;;;20.32;41.27;101565.22;5116945;28;763;-44
2021/01/02 06:05:10;;;;;;;;;;;;;;;20.09;41.81;101570.25;5118133;27;976;-46
2021/01/02 06:07:36;;;;;;;;;;;;;;;19.73;42.65;101564.72;5118414;28;817;-46
2021/01/02 06:10:01;;;;;;;;;;;;;;;20.31;41.37;101569.09;5127436;27;1922;-45
2021/01/02 06:12:28;;;;;;;;;;;;;;;21.05;39.51;101577.69;5138969;27;762;-47
2021/01/02 06:14:54;;;;;;;;;;;;;;;20.67;40.57;101577.28;5139083;27;766;-44
2021/01/02 06:17:30;;;;;;;;;;;;;;;20.49;40.81;101575.97;5138416;27;798;-46
2021/01/02 06:19:58;;;;;;;;;;;;;;;20.25;41.45;101584.03;5138729;27;837;-45
2021/01/02 06:22:24;;;;;;;;;;;;;;;19.65;42.62;101584.56;5138036;27;902;-44
2021/01/02 06:24:50;;;;;;;;;;;;;;;20.48;41.04;101586.19;5138733;27;762;-44
2021/01/02 06:27:15;;;;;;;;;;;;;;;20.68;40.49;101588.09;5138967;27;723;-45
2021/01/02 06:29:41;;;;;;;;;;;;;;;20.34;41.08;101585.09;5138340;27;1976;-48
2021/01/02 06:32:07;;;;;;;;;;;;;;;20.16;41.44;101587.34;5135220;27;865;-48
2021/01/02 06:34:32;;;;;;;;;;;;;;;19.85;41.90;101583.78;5138247;27;874;-46
2021/01/02 06:36:57;;;;;;;;;;;;;;;20.10;41.70;101582.94;5120425;27;838;-45
2021/01/02 06:39:23;;;;;;;;;;;;;;;20.81;40.06;101589.41;5117618;28;806;-46
2021/01/02 06:41:49;;;;;;;;;;;;;;;20.83;39.80;101601.03;5118277;28;681;-44
2021/01/02 06:44:33;;;;;;;;;;;;;;;20.40;40.96;101603.34;5117504;28;865;-53
2021/01/02 06:47:19;;;;;;;;;;;;;;;20.03;41.51;101601.72;5117478;28;991;-45
2021/01/02 06:49:44;;;;;;;;;;;;;;;19.68;42.92;101597.81;5116991;27;1914;-44
2021/01/02 06:52:16;;;;;;;;;;;;;;;20.71;40.37;101597.75;5117242;27;953;-51
2021/01/02 06:54:42;;;;;;;;;;;;;;;20.67;40.17;101593.88;5117082;28;735;-44
2021/01/02 06:57:07;;;;;;;;;;;;;;;20.33;41.09;101600.03;5117787;28;795;-44
2021/01/02 06:59:32;;;;;;;;;;;;;;;20.10;41.58;101598.69;5117472;28;778;-44
2021/01/02 07:01:58;;;;;;;;;;;;;;;19.82;41.78;101603.66;5117313;27;839;-45
2021/01/02 07:04:33;;;;;;;;;;;;;;;19.72;42.65;101606.38;5138214;27;747;-47
2021/01/02 07:06:58;;;;;;;;;;;;;;;20.63;40.50;101621.22;5119995;27;991;-46
2021/01/02 07:09:24;;;;;;;;;;;;;;;20.65;40.23;101626.47;5120972;27;1910;-45
2021/01/02 07:11:50;;;;;;;;;;;;;;;20.36;41.10;101621.56;5137605;27;822;-48
2021/01/02 07:14:15;;;;;;;;;;;;;;;20.27;41.05;101623.25;5137708;27;811;-47
2021/01/02 07:16:42;;;;;;;;;;;;;;;19.86;42.11;101623.25;5137397;27;858;-46
2021/01/02 07:19:08;;;;;;;;;;;;;;;20.02;41.87;101633.22;5138131;27;723;-45
2021/01/02 07:21:34;;;;;;;;;;;;;;;20.78;39.96;101636.97;5123183;27;921;-45
2021/01/02 07:24:18;;;;;;;;;;;;;;;21.33;38.89;101634.22;5116759;28;751;-45
2021/01/02 07:26:43;;;;;;;;;;;;;;;21.23;39.00;101633.47;5116891;28;858;-47
2021/01/02 07:29:16;;;;;;;;;;;;;;;20.84;40.06;101630.31;5117203;28;1905;-45
2021/01/02 07:31:41;;;;;;;;;;;;;;;20.46;40.68;101635.34;5133680;27;897;-44
2021/01/02 07:34:15;;;;;;;;;;;;;;;20.16;41.18;101636.22;5137080;27;869;-43
2021/01/02 07:36:40;;;;;;;;;;;;;;;19.87;42.22;101633.22;5122639;27;945;-43
2021/01/02 07:39:06;;;;;;;;;;;;;;;19.98;41.92;101637.63;5116731;28;683;-43
2021/01/02 07:41:31;;;;;;;;;;;;;;;20.88;40.11;101630.59;5116662;28;651;-44
2021/01/02 07:43:57;;;;;;;;;;;;;;;20.68;40.19;101634.25;5115666;28;727;-44
2021/01/02 07:46:22;;;;;;;;;;;;;;;20.48;40.60;101646.97;5115259;28;1426;-44
2021/01/02 07:48:53;;;;;;;;;;;;;;;20.32;41.01;101640.63;5116655;28;1913;-44
2021/01/02 07:51:18;;;;;;;;;;;;;;;19.93;42.00;101640.38;5116568;27;996;-44
2021/01/02 07:53:50;;;;;;;;;;;;;;;19.82;42.40;101639.53;5116524;28;786;-45
2021/01/02 07:56:31;;;;;;;;;;;;;;;20.79;40.17;101637.78;5116606;28;822;-44
2021/01/02 07:58:57;;;;;;;;;;;;;;;20.48;40.68;101641.44;5116856;28;815;-46
2021/01/02 08:01:22;;;;;;;;;;;;;;;20.38;41.22;101646.97;5116314;28;774;-44
2021/01/02 08:03:48;;;;;;;;;;;;;;;20.08;41.56;101656.94;5116577;28;734;-43
2021/01/02 08:06:15;;;;;;;;;;;;;;;19.84;42.31;101648.38;5127743;27;945;-45
2021/01/02 08:08:41;;;;;;;;;;;;;;;20.78;40.30;101649.97;5140859;27;1913;-47
2021/01/02 08:11:14;;;;;;;;;;;;;;;20.78;40.11;101650.78;5140962;27;1275;-46
2021/01/02 08:13:40;;;;;;;;;;;;;;;20.49;40.79;101645.84;5141285;27;846;-44
2021/01/02 08:16:05;;;;;;;;;;;;;;;20.44;40.80;101651.41;5140665;27;873;-48
2021/01/02 08:18:30;;;;;;;;;;;;;;;19.96;41.77;101648.09;5141001;27;896;-48
2021/01/02 08:21:02;;;;;;;;;;;;;;;20.42;41.15;101650.84;5132259;27;980;-45
2021/01/02 08:23:28;;;;;;;;;;;;;;;21.06;39.50;101655.97;5120277;28;774;-47
2021/01/02 08:25:53;;;;;;;;;;;;;;;20.53;40.59;101651.66;5120372;28;782;-44
2021/01/02 08:28:19;;;;;;;;;;;;;;;20.47;40.81;101661.06;5120380;28;787;-49
2021/01/02 08:30:44;;;;;;;;;;;;;;;20.25;41.32;101655.84;5119666;28;1909;-45
2021/01/02 08:33:10;;;;;;;;;;;;;;;20.11;41.81;101659.16;5120327;28;802;-45
2021/01/02 08:35:36;;;;;;;;;;;;;;;21.02;39.63;101661.22;5123984;27;1478;-44
2021/01/02 08:38:02;;;;;;;;;;;;;;;20.87;39.83;101666.81;5140477;27;773;-45
2021/01/02 08:40:28;;;;;;;;;;;;;;;20.48;40.90;101666.31;5140577;27;847;-47
2021/01/02 08:42:53;;;;;;;;;;;;;;;20.27;41.19;101664.66;5140993;27;854;-49
2021/01/02 08:45:28;;;;;;;;;;;;;;;19.96;41.74;101667.41;5139956;27;1260;-47
2021/01/02 08:48:03;;;;;;;;;;;;;;;20.29;41.40;101671.56;5140541;27;861;-45
2021/01/02 08:50:29;;;;;;;;;;;;;;;21.03;39.42;101671.19;5139321;27;1929;-45
2021/01/02 08:52:54;;;;;;;;;;;;;;;20.51;40.79;101674.03;5139923;27;739;-48
2021/01/02 08:55:20;;;;;;;;;;;;;;;20.41;41.01;101667.69;5140407;27;739;-45
2021/01/02 08:57:49;;;;;;;;;;;;;;;20.22;41.24;101664.69;5140263;27;739;-47
2021/01/02 09:00:15;;;;;;;;;;;;;;;19.72;42.31;101662.41;5140027;27;834;-46
2021/01/02 09:02:42;;;;;;;;;;;;;;;20.40;41.32;101666.88;5140837;27;843;-49
2021/01/02 09:05:11;;;;;;;;;;;;;;;20.83;39.92;101663.75;5138365;27;1003;-47
2021/01/02 09:07:37;;;;;;;;;;;;;;;20.47;40.93;101661.88;5119002;28;859;-52
2021/01/02 09:10:16;;;;;;;;;;;;;;;20.25;41.33;101653.91;5129079;27;1976;-48
2021/01/02 09:12:42;;;;;;;;;;;;;;;19.81;42.09;101659.94;5140066;27;842;-48
2021/01/02 09:15:08;;;;;;;;;;;;;;;20.08;41.78;101654.19;5139581;27;854;-45
2021/01/02 09:17:45;;;;;;;;;;;;;;;21.02;39.92;101655.69;5139930;27;775;-50
2021/01/02 09:20:14;;;;;;;;;;;;;;;20.50;40.86;101657.75;5137580;27;991;-47
2021/01/02 09:22:50;;;;;;;;;;;;;;;20.39;41.32;101654.16;5118782;28;767;-45
2021/01/02 09:25:16;;;;;;;;;;;;;;;20.01;41.71;101645.34;5119306;28;813;-47
2021/01/02 09:27:43;;;;;;;;;;;;;;;20.14;41.87;101653.06;5119614;28;747;-45
2021/01/02 09:30:11;;;;;;;;;;;;;;;20.89;40.25;101640.53;5118674;28;1913;-47
2021/01/02 09:32:39;;;;;;;;;;;;;;;20.64;40.78;101647.75;5119209;27;727;-45
2021/01/02 09:35:06;;;;;;;;;;;;;;;20.48;41.02;101637.84;5119098;27;961;-45
2021/01/02 09:37:31;;;;;;;;;;;;;;;20.20;41.72;101636.50;5118875;28;830;-44
2021/01/02 09:40:16;;;;;;;;;;;;;;;19.81;42.73;101627.69;5119002;28;811;-47
2021/01/02 09:42:41;;;;;;;;;;;;;;;20.74;40.85;101630.34;5118947;28;806;-46
2021/01/02 09:45:07;;;;;;;;;;;;;;;20.79;40.19;101624.81;5118388;28;1224;-44
2021/01/02 09:47:32;;;;;;;;;;;;;;;20.52;40.99;101620.44;5118911;28;827;-44
2021/01/02 09:49:58;;;;;;;;;;;;;;;20.22;41.42;101620.50;5118472;27;1909;-45
2021/01/02 09:52:23;;;;;;;;;;;;;;;19.67;42.42;101615.50;5138706;27;1004;-46
2021/01/02 09:54:48;;;;;;;;;;;;;;;20.27;41.54;101609.44;5139345;27;838;-45
2021/01/02 09:57:14;;;;;;;;;;;;;;;21.01;40.09;101604.25;5139069;27;822;-44
2021/01/02 09:59:42;;;;;;;;;;;;;;;20.65;40.82;101601.59;5138896;27;802;-44
2021/01/02 10:02:07;;;;;;;;;;;;;;;20.34;41.66;101599.75;5139163;27;794;-45
2021/01/02 10:04:32;;;;;;;;;;;;;;;20.12;41.97;101593.72;5139013;27;834;-45
2021/01/02 10:06:58;;;;;;;;;;;;;;;19.91;42.64;101579.94;5121399;27;949;-46
2021/01/02 10:09:24;;;;;;;;;;;;;;;20.76;40.58;101580.31;5122396;27;1905;-44
2021/01/02 10:11:49;;;;;;;;;;;;;;;20.92;40.07;101578.34;5138796;27;770;-45
2021/01/02 10:14:14;;;;;;;;;;;;;;;20.44;41.36;101574.06;5138890;27;743;-45
2021/01/02 10:16:40;;;;;;;;;;;;;;;20.25;41.76;101570.22;5139181;27;806;-44
2021/01/02 10:19:07;;;;;;;;;;;;;;;19.63;42.77;101564.72;5138567;27;798;-46
2021/01/02 10:21:33;;;;;;;;;;;;;;;20.36;41.74;101563.56;5125071;27;953;-44
2021/01/02 10:23:58;;;;;;;;;;;;;;;20.99;40.36;101562.25;5118244;28;789;-45
2021/01/02 10:26:23;;;;;;;;;;;;;;;20.65;40.97;101562.91;5118233;28;799;-45
2021/01/02 10:28:49;;;;;;;;;;;;;;;20.43;41.48;101557.75;5117556;27;1914;-46
2021/01/02 10:31:21;;;;;;;;;;;;;;;19.98;42.24;101554.81;5117949;28;862;-46
2021/01/02 10:33:46;;;;;;;;;;;;;;;19.93;42.65;101549.28;5117823;27;854;-44
2021/01/02 10:36:12;;;;;;;;;;;;;;;20.73;41.19;101543.00;5117279;27;1008;-44
2021/01/02 10:38:37;;;;;;;;;;;;;;;20.65;41.01;101555.47;5118193;28;759;-44
2021/01/02 10:41:03;;;;;;;;;;;;;;;20.46;41.71;101543.38;5117576;28;770;-46
2021/01/02 10:43:28;;;;;;;;;;;;;;;20.26;41.96;101544.25;5117502;28;803;-44
2021/01/02 10:45:54;;;;;;;;;;;;;;;19.66;43.58;101542.09;5117750;28;1165;-45
2021/01/02 10:48:19;;;;;;;;;;;;;;;20.51;41.49;101538.66;5117506;28;835;-44
2021/01/02 10:50:44;;;;;;;;;;;;;;;20.92;40.44;101536.88;5116815;27;2041;-44
2021/01/02 10:53:10;;;;;;;;;;;;;;;20.45;41.75;101537.00;5117662;28;823;-45
2021/01/02 10:55:35;;;;;;;;;;;;;;;20.16;42.36;101537.66;5117431;28;846;-44
2021/01/02 10:58:00;;;;;;;;;;;;;;;19.66;42.78;101536.59;5117260;28;751;-44
2021/01/02 11:00:26;;;;;;;;;;;;;;;20.13;42.69;101540.97;5117368;28;755;-45
2021/01/02 11:02:51;;;;;;;;;;;;;;;20.99;40.54;101535.41;5117406;28;791;-46
2021/01/02 11:05:17;;;;;;;;;;;;;;;20.84;40.73;101529.97;5117025;27;996;-45
2021/01/02 11:07:42;;;;;;;;;;;;;;;20.50;41.73;101534.25;5117363;28;723;-45
2021/01/02 11:10:08;;;;;;;;;;;;;;;20.25;42.23;101531.56;5127424;27;1914;-44
2021/01/02 11:12:33;;;;;;;;;;;;;;;19.87;42.98;101531.09;5137345;27;1051;-46
2021/01/02 11:14:59;;;;;;;;;;;;;;;20.78;41.19;101534.72;5137527;27;1248;-44
2021/01/02 11:17:24;;;;;;;;;;;;;;;20.88;40.74;101527.47;5138220;27;1220;-46
2021/01/02 11:19:50;;;;;;;;;;;;;;;20.54;41.73;101530.91;5137234;27;1106;-45
2021/01/02 11:22:15;;;;;;;;;;;;;;;20.28;42.29;101531.81;5117918;27;956;-46
2021/01/02 11:24:41;;;;;;;;;;;;;;;19.73;42.78;101528.84;5117246;28;837;-48
2021/01/02 11:27:07;;;;;;;;;;;;;;;20.45;41.93;101530.66;5116934;28;858;-46
2021/01/02 11:29:32;;;;;;;;;;;;;;;21.00;40.61;101519.69;5117044;28;1909;-47
2021/01/02 11:31:58;;;;;;;;;;;;;;;20.49;41.96;101521.53;5117150;28;743;-47
2021/01/02 11:34:24;;;;;;;;;;;;;;;20.44;42.02;101523.47;5117020;28;743;-45
2021/01/02 11:36:50;;;;;;;;;;;;;;;19.92;42.76;101525.53;5116510;27;1067;-45
2021/01/02 11:39:16;;;;;;;;;;;;;;;19.91;43.29;101518.34;5117320;28;759;-45
2021/01/02 11:41:42;;;;;;;;;;;;;;;20.83;41.42;101526.41;5119891;28;822;-46
2021/01/02 11:44:08;;;;;;;;;;;;;;;20.57;41.53;101516.53;5120785;28;755;-46
2021/01/02 11:46:34;;;;;;;;;;;;;;;20.58;41.85;101527.31;5121227;28;1015;-45
2021/01/02 11:49:00;;;;;;;;;;;;;;;20.29;42.35;101527.13;5121421;27;1984;-48
2021/01/02 11:51:25;;;;;;;;;;;;;;;19.48;43.33;101524.97;5138459;27;1527;-54
2021/01/02 11:53:51;;;;;;;;;;;;;;;20.43;42.27;101522.66;5141624;27;1293;-46
2021/01/02 11:56:22;;;;;;;;;;;;;;;21.01;40.58;101521.31;5141670;27;854;-48
2021/01/02 11:58:48;;;;;;;;;;;;;;;20.34;42.13;101522.44;5141061;27;849;-47
2021/01/02 12:01:13;;;;;;;;;;;;;;;20.19;42.52;101528.00;5141638;27;1304;-46
2021/01/02 12:03:38;;;;;;;;;;;;;;;19.95;42.73;101528.59;5141314;27;1039;-44
2021/01/02 12:06:04;;;;;;;;;;;;;;;20.14;42.95;101528.81;5131044;27;952;-45
2021/01/02 12:08:29;;;;;;;;;;;;;;;20.90;41.13;101525.25;5120900;28;1027;-46
2021/01/02 12:10:55;;;;;;;;;;;;;;;20.60;41.93;101532.56;5137686;27;1970;-45
2021/01/02 12:13:20;;;;;;;;;;;;;;;20.37;42.37;101534.84;5140783;27;758;-45
2021/01/02 12:15:48;;;;;;;;;;;;;;;19.97;43.20;101533.81;5141676;27;814;-45
2021/01/02 12:18:13;;;;;;;;;;;;;;;19.86;43.53;101540.47;5141249;27;903;-45
2021/01/02 12:20:38;;;;;;;;;;;;;;;20.64;41.98;101530.88;5139573;27;992;-46
2021/01/02 12:23:04;;;;;;;;;;;;;;;20.81;41.07;101538.84;5141170;27;802;-44
2021/01/02 12:25:30;;;;;;;;;;;;;;;20.41;42.24;101547.00;5141363;27;717;-44
2021/01/02 12:27:58;;;;;;;;;;;;;;;20.34;42.50;101538.16;5140538;27;763;-46
2021/01/02 12:30:24;;;;;;;;;;;;;;;19.81;42.85;101544.03;5140904;27;1965;-44
2021/01/02 12:32:49;;;;;;;;;;;;;;;20.55;42.07;101552.72;5140997;27;838;-44
2021/01/02 12:35:15;;;;;;;;;;;;;;;21.19;40.68;101540.00;5139332;27;1003;-46
2021/01/02 12:37:40;;;;;;;;;;;;;;;20.66;41.58;101548.00;5141174;27;799;-44
2021/01/02 12:40:06;;;;;;;;;;;;;;;20.38;42.16;101546.72;5140692;27;831;-46
2021/01/02 12:42:35;;;;;;;;;;;;;;;19.99;42.95;101545.41;5139981;27;1236;-45
2021/01/02 12:45:01;;;;;;;;;;;;;;;20.07;43.08;101547.59;5140539;27;1070;-45
2021/01/02 12:47:26;;;;;;;;;;;;;;;20.92;41.40;101547.91;5140669;27;743;-48
2021/01/02 12:49:52;;;;;;;;;;;;;;;20.74;41.63;101561.25;5139683;27;1970;-47
2021/01/02 12:52:18;;;;;;;;;;;;;;;20.47;41.93;101556.91;5139093;27;952;-47
2021/01/02 12:54:44;;;;;;;;;;;;;;;20.18;42.71;101554.75;5140475;27;902;-44
2021/01/02 12:57:09;;;;;;;;;;;;;;;19.63;43.33;101561.97;5139680;27;1476;-44